sensor_id;sensor_type;location;lat;lon;timestamp;pressure;altitude;pressure_sealevel;temperature
65569;BMP180;52211;50.154;8.682;2023-02-16T00:00:21;101175.00;;;8.30
65569;BMP180;52211;50.154;8.682;2023-02-16T00:02:55;101174.00;;;8.40
65569;BMP180;52211;50.154;8.682;2023-02-16T00:05:30;101164.00;;;8.30
65569;BMP180;52211;50.154;8.682;2023-02-16T00:07:59;101169.00;;;8.40
65569;BMP180;52211;50.154;8.682;2023-02-16T00:10:33;101155.00;;;8.30
65569;BMP180;52211;50.154;8.682;2023-02-16T00:13:24;101163.00;;;8.30
65569;BMP180;52211;50.154;8.682;2023-02-16T00:18:41;101166.00;;;8.30
65569;BMP180;52211;50.154;8.682;2023-02-16T00:21:08;101158.00;;;8.30
65569;BMP180;52211;50.154;8.682;2023-02-16T00:23:35;101159.00;;;8.30
65569;BMP180;52211;50.154;8.682;2023-02-16T00:26:12;101163.00;;;8.30
65569;BMP180;52211;50.154;8.682;2023-02-16T00:28:43;101159.00;;;8.30
65569;BMP180;52211;50.154;8.682;2023-02-16T00:31:21;101162.00;;;8.40
65569;BMP180;52211;50.154;8.682;2023-02-16T00:33:49;101164.00;;;8.40
65569;BMP180;52211;50.154;8.682;2023-02-16T00:36:19;101159.00;;;8.50
65569;BMP180;52211;50.154;8.682;2023-02-16T00:38:51;101159.00;;;8.50
65569;BMP180;52211;50.154;8.682;2023-02-16T00:41:23;101153.00;;;8.50
65569;BMP180;52211;50.154;8.682;2023-02-16T00:46:47;101166.00;;;8.50
65569;BMP180;52211;50.154;8.682;2023-02-16T00:49:20;101159.00;;;8.50
65569;BMP180;52211;50.154;8.682;2023-02-16T00:51:49;101142.00;;;8.50
65569;BMP180;52211;50.154;8.682;2023-02-16T00:54:16;101144.00;;;8.60
65569;BMP180;52211;50.154;8.682;2023-02-16T00:56:46;101141.00;;;8.60
65569;BMP180;52211;50.154;8.682;2023-02-16T00:59:21;101150.00;;;8.60
65569;BMP180;52211;50.154;8.682;2023-02-16T01:01:48;101140.00;;;8.60
65569;BMP180;52211;50.154;8.682;2023-02-16T01:04:24;101134.00;;;8.60
65569;BMP180;52211;50.154;8.682;2023-02-16T01:06:56;101142.00;;;8.60
65569;BMP180;52211;50.154;8.682;2023-02-16T01:09:41;101140.00;;;8.60
65569;BMP180;52211;50.154;8.682;2023-02-16T01:12:29;101145.00;;;8.60
65569;BMP180;52211;50.154;8.682;2023-02-16T01:14:57;101148.00;;;8.60
65569;BMP180;52211;50.154;8.682;2023-02-16T01:17:24;101141.00;;;8.60
65569;BMP180;52211;50.154;8.682;2023-02-16T01:19:56;101153.00;;;8.60
65569;BMP180;52211;50.154;8.682;2023-02-16T01:22:25;101148.00;;;8.60
65569;BMP180;52211;50.154;8.682;2023-02-16T01:24:52;101137.00;;;8.60
65569;BMP180;52211;50.154;8.682;2023-02-16T01:27:24;101142.00;;;8.60
65569;BMP180;52211;50.154;8.682;2023-02-16T01:29:51;101140.00;;;8.60
65569;BMP180;52211;50.154;8.682;2023-02-16T01:32:24;101131.00;;;8.60
65569;BMP180;52211;50.154;8.682;2023-02-16T01:34:51;101128.00;;;8.60
65569;BMP180;52211;50.154;8.682;2023-02-16T01:37:20;101120.00;;;8.50
65569;BMP180;52211;50.154;8.682;2023-02-16T01:39:47;101128.00;;;8.50
65569;BMP180;52211;50.154;8.682;2023-02-16T01:45:07;101127.00;;;8.50
65569;BMP180;52211;50.154;8.682;2023-02-16T01:47:53;101111.00;;;8.40
65569;BMP180;52211;50.154;8.682;2023-02-16T01:50:27;101115.00;;;8.40
65569;BMP180;52211;50.154;8.682;2023-02-16T01:53:13;101108.00;;;8.40
65569;BMP180;52211;50.154;8.682;2023-02-16T01:55:50;101103.00;;;8.40
65569;BMP180;52211;50.154;8.682;2023-02-16T01:59:03;101109.00;;;8.30
65569;BMP180;52211;50.154;8.682;2023-02-16T02:01:58;101121.00;;;8.30
65569;BMP180;52211;50.154;8.682;2023-02-16T02:04:45;101113.00;;;8.30
65569;BMP180;52211;50.154;8.682;2023-02-16T02:16:20;101107.00;;;8.20
65569;BMP180;52211;50.154;8.682;2023-02-16T02:18:48;101106.00;;;8.30
65569;BMP180;52211;50.154;8.682;2023-02-16T02:33:33;101095.00;;;8.20
65569;BMP180;52211;50.154;8.682;2023-02-16T02:36:36;101093.00;;;8.20
65569;BMP180;52211;50.154;8.682;2023-02-16T02:39:47;101079.00;;;8.20
65569;BMP180;52211;50.154;8.682;2023-02-16T02:42:40;101068.00;;;8.30
65569;BMP180;52211;50.154;8.682;2023-02-16T02:45:20;101074.00;;;8.30
65569;BMP180;52211;50.154;8.682;2023-02-16T02:47:49;101074.00;;;8.30
65569;BMP180;52211;50.154;8.682;2023-02-16T02:50:39;101064.00;;;8.30
65569;BMP180;52211;50.154;8.682;2023-02-16T02:53:14;101067.00;;;8.30
65569;BMP180;52211;50.154;8.682;2023-02-16T02:55:49;101073.00;;;8.40
65569;BMP180;52211;50.154;8.682;2023-02-16T02:58:40;101082.00;;;8.30
65569;BMP180;52211;50.154;8.682;2023-02-16T03:01:27;101080.00;;;8.30
65569;BMP180;52211;50.154;8.682;2023-02-16T03:04:03;101081.00;;;8.30
65569;BMP180;52211;50.154;8.682;2023-02-16T03:06:40;101077.00;;;8.30
65569;BMP180;52211;50.154;8.682;2023-02-16T03:09:13;101075.00;;;8.30
65569;BMP180;52211;50.154;8.682;2023-02-16T03:11:44;101087.00;;;8.30
65569;BMP180;52211;50.154;8.682;2023-02-16T03:14:55;101076.00;;;8.30
65569;BMP180;52211;50.154;8.682;2023-02-16T03:17:32;101088.00;;;8.30
65569;BMP180;52211;50.154;8.682;2023-02-16T03:20:20;101085.00;;;8.30
65569;BMP180;52211;50.154;8.682;2023-02-16T03:23:07;101090.00;;;8.30
65569;BMP180;52211;50.154;8.682;2023-02-16T03:25:58;101092.00;;;8.30
65569;BMP180;52211;50.154;8.682;2023-02-16T03:28:48;101095.00;;;8.30
65569;BMP180;52211;50.154;8.682;2023-02-16T03:31:38;101090.00;;;8.20
65569;BMP180;52211;50.154;8.682;2023-02-16T03:34:07;101087.00;;;8.20
65569;BMP180;52211;50.154;8.682;2023-02-16T03:36:39;101089.00;;;8.20
65569;BMP180;52211;50.154;8.682;2023-02-16T03:39:09;101084.00;;;8.20
65569;BMP180;52211;50.154;8.682;2023-02-16T03:41:54;101087.00;;;8.20
65569;BMP180;52211;50.154;8.682;2023-02-16T03:44:23;101076.00;;;8.30
65569;BMP180;52211;50.154;8.682;2023-02-16T03:46:50;101083.00;;;8.30
65569;BMP180;52211;50.154;8.682;2023-02-16T03:49:19;101083.00;;;8.30
65569;BMP180;52211;50.154;8.682;2023-02-16T03:51:46;101078.00;;;8.30
65569;BMP180;52211;50.154;8.682;2023-02-16T03:54:19;101082.00;;;8.20
65569;BMP180;52211;50.154;8.682;2023-02-16T03:56:51;101078.00;;;8.20
65569;BMP180;52211;50.154;8.682;2023-02-16T03:59:21;101070.00;;;8.20
65569;BMP180;52211;50.154;8.682;2023-02-16T04:01:50;101065.00;;;8.20
65569;BMP180;52211;50.154;8.682;2023-02-16T04:04:18;101069.00;;;8.20
65569;BMP180;52211;50.154;8.682;2023-02-16T04:06:45;101072.00;;;8.10
65569;BMP180;52211;50.154;8.682;2023-02-16T04:09:15;101072.00;;;8.10
65569;BMP180;52211;50.154;8.682;2023-02-16T04:11:43;101073.00;;;8.10
65569;BMP180;52211;50.154;8.682;2023-02-16T04:14:35;101089.00;;;8.10
65569;BMP180;52211;50.154;8.682;2023-02-16T04:17:04;101084.00;;;8.10
65569;BMP180;52211;50.154;8.682;2023-02-16T04:19:37;101078.00;;;8.00
65569;BMP180;52211;50.154;8.682;2023-02-16T04:22:05;101084.00;;;8.00
65569;BMP180;52211;50.154;8.682;2023-02-16T04:24:37;101080.00;;;8.10
65569;BMP180;52211;50.154;8.682;2023-02-16T04:27:05;101081.00;;;8.10
65569;BMP180;52211;50.154;8.682;2023-02-16T04:29:34;101076.00;;;8.10
65569;BMP180;52211;50.154;8.682;2023-02-16T04:32:01;101082.00;;;8.10
65569;BMP180;52211;50.154;8.682;2023-02-16T04:34:28;101079.00;;;8.10
65569;BMP180;52211;50.154;8.682;2023-02-16T04:36:59;101074.00;;;8.00
65569;BMP180;52211;50.154;8.682;2023-02-16T04:39:28;101076.00;;;8.00
65569;BMP180;52211;50.154;8.682;2023-02-16T04:41:55;101075.00;;;8.00
65569;BMP180;52211;50.154;8.682;2023-02-16T04:44:22;101076.00;;;8.00
65569;BMP180;52211;50.154;8.682;2023-02-16T04:46:53;101079.00;;;8.00
65569;BMP180;52211;50.154;8.682;2023-02-16T04:49:20;101078.00;;;8.00
65569;BMP180;52211;50.154;8.682;2023-02-16T04:51:52;101078.00;;;8.00
65569;BMP180;52211;50.154;8.682;2023-02-16T04:54:23;101079.00;;;8.00
65569;BMP180;52211;50.154;8.682;2023-02-16T04:56:55;101079.00;;;7.90
65569;BMP180;52211;50.154;8.682;2023-02-16T04:59:22;101083.00;;;7.90
65569;BMP180;52211;50.154;8.682;2023-02-16T05:01:51;101074.00;;;7.90
65569;BMP180;52211;50.154;8.682;2023-02-16T05:04:21;101080.00;;;7.90
65569;BMP180;52211;50.154;8.682;2023-02-16T05:06:48;101078.00;;;7.90
65569;BMP180;52211;50.154;8.682;2023-02-16T05:09:25;101080.00;;;7.90
65569;BMP180;52211;50.154;8.682;2023-02-16T05:11:56;101078.00;;;7.90
65569;BMP180;52211;50.154;8.682;2023-02-16T05:14:44;101080.00;;;7.90
65569;BMP180;52211;50.154;8.682;2023-02-16T05:17:25;101081.00;;;7.90
65569;BMP180;52211;50.154;8.682;2023-02-16T05:19:59;101082.00;;;7.80
65569;BMP180;52211;50.154;8.682;2023-02-16T05:22:29;101082.00;;;7.80
65569;BMP180;52211;50.154;8.682;2023-02-16T05:25:02;101092.00;;;7.80
65569;BMP180;52211;50.154;8.682;2023-02-16T05:27:29;101088.00;;;7.80
65569;BMP180;52211;50.154;8.682;2023-02-16T05:29:57;101088.00;;;7.80
65569;BMP180;52211;50.154;8.682;2023-02-16T05:32:27;101088.00;;;7.80
65569;BMP180;52211;50.154;8.682;2023-02-16T05:34:56;101090.00;;;7.70
65569;BMP180;52211;50.154;8.682;2023-02-16T05:37:25;101084.00;;;7.70
65569;BMP180;52211;50.154;8.682;2023-02-16T05:39:53;101087.00;;;7.70
65569;BMP180;52211;50.154;8.682;2023-02-16T05:42:22;101086.00;;;7.70
65569;BMP180;52211;50.154;8.682;2023-02-16T05:44:51;101101.00;;;7.70
65569;BMP180;52211;50.154;8.682;2023-02-16T05:47:22;101102.00;;;7.80
65569;BMP180;52211;50.154;8.682;2023-02-16T05:49:52;101107.00;;;7.80
65569;BMP180;52211;50.154;8.682;2023-02-16T05:52:24;101100.00;;;7.70
65569;BMP180;52211;50.154;8.682;2023-02-16T05:54:57;101102.00;;;7.70
65569;BMP180;52211;50.154;8.682;2023-02-16T05:57:24;101094.00;;;7.80
65569;BMP180;52211;50.154;8.682;2023-02-16T05:59:51;101100.00;;;7.80
65569;BMP180;52211;50.154;8.682;2023-02-16T06:02:20;101107.00;;;7.80
65569;BMP180;52211;50.154;8.682;2023-02-16T06:04:52;101103.00;;;7.70
65569;BMP180;52211;50.154;8.682;2023-02-16T06:07:19;101100.00;;;7.70
65569;BMP180;52211;50.154;8.682;2023-02-16T06:09:46;101104.00;;;7.70
65569;BMP180;52211;50.154;8.682;2023-02-16T06:12:15;101108.00;;;7.70
65569;BMP180;52211;50.154;8.682;2023-02-16T06:14:44;101103.00;;;7.80
65569;BMP180;52211;50.154;8.682;2023-02-16T06:17:16;101110.00;;;7.70
65569;BMP180;52211;50.154;8.682;2023-02-16T06:19:43;101113.00;;;7.80
65569;BMP180;52211;50.154;8.682;2023-02-16T06:22:12;101117.00;;;7.70
65569;BMP180;52211;50.154;8.682;2023-02-16T06:24:38;101116.00;;;7.70
65569;BMP180;52211;50.154;8.682;2023-02-16T06:27:05;101114.00;;;7.70
65569;BMP180;52211;50.154;8.682;2023-02-16T06:29:35;101114.00;;;7.60
65569;BMP180;52211;50.154;8.682;2023-02-16T06:32:09;101116.00;;;7.60
65569;BMP180;52211;50.154;8.682;2023-02-16T06:34:41;101125.00;;;7.60
65569;BMP180;52211;50.154;8.682;2023-02-16T06:37:08;101121.00;;;7.60
65569;BMP180;52211;50.154;8.682;2023-02-16T06:39:40;101134.00;;;7.60
65569;BMP180;52211;50.154;8.682;2023-02-16T06:42:07;101124.00;;;7.60
65569;BMP180;52211;50.154;8.682;2023-02-16T06:44:34;101131.00;;;7.60
65569;BMP180;52211;50.154;8.682;2023-02-16T06:47:00;101130.00;;;7.60
65569;BMP180;52211;50.154;8.682;2023-02-16T06:49:29;101118.00;;;7.60
65569;BMP180;52211;50.154;8.682;2023-02-16T06:51:58;101125.00;;;7.60
65569;BMP180;52211;50.154;8.682;2023-02-16T06:54:28;101123.00;;;7.60
65569;BMP180;52211;50.154;8.682;2023-02-16T06:56:57;101140.00;;;7.60
65569;BMP180;52211;50.154;8.682;2023-02-16T06:59:26;101131.00;;;7.50
65569;BMP180;52211;50.154;8.682;2023-02-16T07:01:55;101134.00;;;7.50
65569;BMP180;52211;50.154;8.682;2023-02-16T07:04:27;101141.00;;;7.50
65569;BMP180;52211;50.154;8.682;2023-02-16T07:06:54;101143.00;;;7.50
65569;BMP180;52211;50.154;8.682;2023-02-16T07:09:24;101132.00;;;7.50
65569;BMP180;52211;50.154;8.682;2023-02-16T07:11:53;101143.00;;;7.50
65569;BMP180;52211;50.154;8.682;2023-02-16T07:14:20;101144.00;;;7.50
65569;BMP180;52211;50.154;8.682;2023-02-16T07:16:49;101150.00;;;7.40
65569;BMP180;52211;50.154;8.682;2023-02-16T07:19:18;101152.00;;;7.40
65569;BMP180;52211;50.154;8.682;2023-02-16T07:21:48;101139.00;;;7.40
65569;BMP180;52211;50.154;8.682;2023-02-16T07:24:17;101131.00;;;7.40
65569;BMP180;52211;50.154;8.682;2023-02-16T07:26:46;101139.00;;;7.30
65569;BMP180;52211;50.154;8.682;2023-02-16T07:29:15;101144.00;;;7.30
65569;BMP180;52211;50.154;8.682;2023-02-16T07:31:44;101142.00;;;7.20
65569;BMP180;52211;50.154;8.682;2023-02-16T07:34:11;101146.00;;;7.30
65569;BMP180;52211;50.154;8.682;2023-02-16T07:36:40;101148.00;;;7.30
65569;BMP180;52211;50.154;8.682;2023-02-16T07:39:08;101145.00;;;7.30
65569;BMP180;52211;50.154;8.682;2023-02-16T07:41:39;101160.00;;;7.30
65569;BMP180;52211;50.154;8.682;2023-02-16T07:44:10;101145.00;;;7.30
65569;BMP180;52211;50.154;8.682;2023-02-16T07:46:44;101151.00;;;7.30
65569;BMP180;52211;50.154;8.682;2023-02-16T07:49:11;101151.00;;;7.40
65569;BMP180;52211;50.154;8.682;2023-02-16T07:51:38;101149.00;;;7.40
65569;BMP180;52211;50.154;8.682;2023-02-16T07:54:06;101147.00;;;7.40
65569;BMP180;52211;50.154;8.682;2023-02-16T07:56:35;101149.00;;;7.40
65569;BMP180;52211;50.154;8.682;2023-02-16T07:59:04;101148.00;;;7.40
65569;BMP180;52211;50.154;8.682;2023-02-16T08:01:31;101157.00;;;7.40
65569;BMP180;52211;50.154;8.682;2023-02-16T08:04:00;101172.00;;;7.40
65569;BMP180;52211;50.154;8.682;2023-02-16T08:06:30;101164.00;;;7.30
65569;BMP180;52211;50.154;8.682;2023-02-16T08:08:56;101168.00;;;7.30
65569;BMP180;52211;50.154;8.682;2023-02-16T08:11:26;101165.00;;;7.20
65569;BMP180;52211;50.154;8.682;2023-02-16T08:13:53;101163.00;;;7.20
65569;BMP180;52211;50.154;8.682;2023-02-16T08:16:24;101154.00;;;7.20
65569;BMP180;52211;50.154;8.682;2023-02-16T08:18:56;101152.00;;;7.10
65569;BMP180;52211;50.154;8.682;2023-02-16T08:21:29;101159.00;;;7.10
65569;BMP180;52211;50.154;8.682;2023-02-16T08:24:04;101157.00;;;7.10
65569;BMP180;52211;50.154;8.682;2023-02-16T08:26:38;101158.00;;;7.10
65569;BMP180;52211;50.154;8.682;2023-02-16T08:29:06;101146.00;;;7.00
65569;BMP180;52211;50.154;8.682;2023-02-16T08:31:38;101144.00;;;7.00
65569;BMP180;52211;50.154;8.682;2023-02-16T08:34:06;101143.00;;;7.00
65569;BMP180;52211;50.154;8.682;2023-02-16T08:36:39;101146.00;;;7.00
65569;BMP180;52211;50.154;8.682;2023-02-16T08:39:19;101158.00;;;6.90
65569;BMP180;52211;50.154;8.682;2023-02-16T08:41:49;101155.00;;;6.90
65569;BMP180;52211;50.154;8.682;2023-02-16T08:44:18;101156.00;;;6.80
65569;BMP180;52211;50.154;8.682;2023-02-16T08:46:52;101172.00;;;6.80
65569;BMP180;52211;50.154;8.682;2023-02-16T08:49:23;101169.00;;;6.80
65569;BMP180;52211;50.154;8.682;2023-02-16T08:52:01;101155.00;;;6.70
65569;BMP180;52211;50.154;8.682;2023-02-16T08:54:30;101164.00;;;6.70
65569;BMP180;52211;50.154;8.682;2023-02-16T08:57:04;101168.00;;;6.70
65569;BMP180;52211;50.154;8.682;2023-02-16T08:59:34;101164.00;;;6.70
65569;BMP180;52211;50.154;8.682;2023-02-16T09:02:01;101168.00;;;6.70
65569;BMP180;52211;50.154;8.682;2023-02-16T09:04:30;101172.00;;;6.70
65569;BMP180;52211;50.154;8.682;2023-02-16T09:07:00;101169.00;;;6.70
65569;BMP180;52211;50.154;8.682;2023-02-16T09:09:27;101177.00;;;6.70
65569;BMP180;52211;50.154;8.682;2023-02-16T09:11:56;101184.00;;;6.70
65569;BMP180;52211;50.154;8.682;2023-02-16T09:14:26;101174.00;;;6.80
65569;BMP180;52211;50.154;8.682;2023-02-16T09:16:53;101184.00;;;6.80
65569;BMP180;52211;50.154;8.682;2023-02-16T09:19:25;101176.00;;;6.80
65569;BMP180;52211;50.154;8.682;2023-02-16T09:21:56;101190.00;;;6.90
65569;BMP180;52211;50.154;8.682;2023-02-16T09:24:23;101190.00;;;6.90
65569;BMP180;52211;50.154;8.682;2023-02-16T09:26:50;101189.00;;;6.90
65569;BMP180;52211;50.154;8.682;2023-02-16T09:29:22;101191.00;;;6.90
65569;BMP180;52211;50.154;8.682;2023-02-16T09:31:49;101191.00;;;6.90
65569;BMP180;52211;50.154;8.682;2023-02-16T09:34:19;101194.00;;;6.90
65569;BMP180;52211;50.154;8.682;2023-02-16T09:36:48;101182.00;;;6.90
65569;BMP180;52211;50.154;8.682;2023-02-16T09:39:20;101177.00;;;6.80
65569;BMP180;52211;50.154;8.682;2023-02-16T09:45:01;101172.00;;;6.80
65569;BMP180;52211;50.154;8.682;2023-02-16T09:47:37;101180.00;;;6.80
65569;BMP180;52211;50.154;8.682;2023-02-16T09:50:23;101187.00;;;6.80
65569;BMP180;52211;50.154;8.682;2023-02-16T09:53:22;101194.00;;;6.90
65569;BMP180;52211;50.154;8.682;2023-02-16T09:56:14;101202.00;;;6.90
65569;BMP180;52211;50.154;8.682;2023-02-16T10:09:36;101180.00;;;7.10
65569;BMP180;52211;50.154;8.682;2023-02-16T10:12:10;101172.00;;;7.20
65569;BMP180;52211;50.154;8.682;2023-02-16T10:15:16;101182.00;;;7.20
65569;BMP180;52211;50.154;8.682;2023-02-16T10:17:53;101181.00;;;7.20
65569;BMP180;52211;50.154;8.682;2023-02-16T10:20:35;101188.00;;;7.30
65569;BMP180;52211;50.154;8.682;2023-02-16T10:23:44;101179.00;;;7.30
65569;BMP180;52211;50.154;8.682;2023-02-16T10:26:56;101186.00;;;7.30
65569;BMP180;52211;50.154;8.682;2023-02-16T10:29:30;101195.00;;;7.30
65569;BMP180;52211;50.154;8.682;2023-02-16T10:32:26;101190.00;;;7.30
65569;BMP180;52211;50.154;8.682;2023-02-16T10:35:11;101181.00;;;7.40
65569;BMP180;52211;50.154;8.682;2023-02-16T10:38:23;101184.00;;;7.30
65569;BMP180;52211;50.154;8.682;2023-02-16T10:41:30;101184.00;;;7.40
65569;BMP180;52211;50.154;8.682;2023-02-16T10:44:30;101182.00;;;7.50
65569;BMP180;52211;50.154;8.682;2023-02-16T10:47:05;101167.00;;;7.60
65569;BMP180;52211;50.154;8.682;2023-02-16T10:49:39;101168.00;;;7.60
65569;BMP180;52211;50.154;8.682;2023-02-16T10:52:11;101163.00;;;7.70
65569;BMP180;52211;50.154;8.682;2023-02-16T10:54:38;101167.00;;;7.70
65569;BMP180;52211;50.154;8.682;2023-02-16T10:57:21;101153.00;;;7.80
65569;BMP180;52211;50.154;8.682;2023-02-16T10:59:56;101151.00;;;7.90
65569;BMP180;52211;50.154;8.682;2023-02-16T11:02:47;101155.00;;;8.00
65569;BMP180;52211;50.154;8.682;2023-02-16T11:05:27;101156.00;;;8.10
65569;BMP180;52211;50.154;8.682;2023-02-16T11:07:56;101156.00;;;8.20
65569;BMP180;52211;50.154;8.682;2023-02-16T11:10:47;101151.00;;;8.30
65569;BMP180;52211;50.154;8.682;2023-02-16T11:13:29;101134.00;;;8.40
65569;BMP180;52211;50.154;8.682;2023-02-16T11:16:27;101126.00;;;8.60
65569;BMP180;52211;50.154;8.682;2023-02-16T11:19:05;101121.00;;;8.70
65569;BMP180;52211;50.154;8.682;2023-02-16T11:21:53;101128.00;;;8.80
65569;BMP180;52211;50.154;8.682;2023-02-16T11:27:22;101114.00;;;9.10
65569;BMP180;52211;50.154;8.682;2023-02-16T11:30:18;101114.00;;;9.10
65569;BMP180;52211;50.154;8.682;2023-02-16T11:32:54;101101.00;;;9.20
65569;BMP180;52211;50.154;8.682;2023-02-16T11:35:21;101087.00;;;9.20
65569;BMP180;52211;50.154;8.682;2023-02-16T11:37:49;101103.00;;;9.30
65569;BMP180;52211;50.154;8.682;2023-02-16T11:40:28;101093.00;;;9.40
65569;BMP180;52211;50.154;8.682;2023-02-16T11:43:00;101083.00;;;9.50
65569;BMP180;52211;50.154;8.682;2023-02-16T11:45:32;101090.00;;;9.50
65569;BMP180;52211;50.154;8.682;2023-02-16T11:48:09;101093.00;;;9.60
65569;BMP180;52211;50.154;8.682;2023-02-16T11:51:00;101090.00;;;9.80
65569;BMP180;52211;50.154;8.682;2023-02-16T11:53:37;101093.00;;;9.80
65569;BMP180;52211;50.154;8.682;2023-02-16T11:58:44;101099.00;;;9.90
65569;BMP180;52211;50.154;8.682;2023-02-16T12:08:25;101091.00;;;10.10
65569;BMP180;52211;50.154;8.682;2023-02-16T12:22:50;101069.00;;;11.30
65569;BMP180;52211;50.154;8.682;2023-02-16T12:25:40;101064.00;;;11.50
65569;BMP180;52211;50.154;8.682;2023-02-16T12:28:22;101071.00;;;11.70
65569;BMP180;52211;50.154;8.682;2023-02-16T12:34:11;101057.00;;;11.90
65569;BMP180;52211;50.154;8.682;2023-02-16T12:45:22;101057.00;;;12.50
65569;BMP180;52211;50.154;8.682;2023-02-16T12:48:18;101059.00;;;12.70
65569;BMP180;52211;50.154;8.682;2023-02-16T12:50:49;101046.00;;;12.90
65569;BMP180;52211;50.154;8.682;2023-02-16T12:53:31;101034.00;;;13.00
65569;BMP180;52211;50.154;8.682;2023-02-16T12:56:16;101030.00;;;13.00
65569;BMP180;52211;50.154;8.682;2023-02-16T12:58:52;101030.00;;;12.90
65569;BMP180;52211;50.154;8.682;2023-02-16T13:01:32;101027.00;;;12.90
65569;BMP180;52211;50.154;8.682;2023-02-16T13:04:41;101040.00;;;12.70
65569;BMP180;52211;50.154;8.682;2023-02-16T13:07:21;101035.00;;;12.60
65569;BMP180;52211;50.154;8.682;2023-02-16T13:13:02;101023.00;;;12.30
65569;BMP180;52211;50.154;8.682;2023-02-16T13:15:44;101012.00;;;12.30
65569;BMP180;52211;50.154;8.682;2023-02-16T13:18:25;101007.00;;;12.20
65569;BMP180;52211;50.154;8.682;2023-02-16T13:24:18;100992.00;;;12.00
65569;BMP180;52211;50.154;8.682;2023-02-16T13:39:30;100974.00;;;11.80
65569;BMP180;52211;50.154;8.682;2023-02-16T13:45:01;100963.00;;;11.80
65569;BMP180;52211;50.154;8.682;2023-02-16T13:47:41;100974.00;;;11.80
65569;BMP180;52211;50.154;8.682;2023-02-16T13:50:33;100968.00;;;11.70
65569;BMP180;52211;50.154;8.682;2023-02-16T13:53:32;100967.00;;;11.60
65569;BMP180;52211;50.154;8.682;2023-02-16T14:01:51;100945.00;;;11.40
65569;BMP180;52211;50.154;8.682;2023-02-16T14:09:51;100945.00;;;11.40
65569;BMP180;52211;50.154;8.682;2023-02-16T14:12:30;100950.00;;;11.30
65569;BMP180;52211;50.154;8.682;2023-02-16T14:15:04;100940.00;;;11.40
65569;BMP180;52211;50.154;8.682;2023-02-16T14:17:35;100945.00;;;11.40
65569;BMP180;52211;50.154;8.682;2023-02-16T14:22:50;100945.00;;;11.30
65569;BMP180;52211;50.154;8.682;2023-02-16T14:33:18;100942.00;;;11.20
65569;BMP180;52211;50.154;8.682;2023-02-16T14:38:47;100948.00;;;11.20
65569;BMP180;52211;50.154;8.682;2023-02-16T14:59:02;100934.00;;;11.30
65569;BMP180;52211;50.154;8.682;2023-02-16T15:01:40;100930.00;;;11.40
65569;BMP180;52211;50.154;8.682;2023-02-16T15:04:10;100925.00;;;11.50
65569;BMP180;52211;50.154;8.682;2023-02-16T15:06:45;100924.00;;;11.50
65569;BMP180;52211;50.154;8.682;2023-02-16T15:09:27;100929.00;;;11.50
65569;BMP180;52211;50.154;8.682;2023-02-16T15:12:04;100925.00;;;11.50
65569;BMP180;52211;50.154;8.682;2023-02-16T15:15:07;100913.00;;;11.50
65569;BMP180;52211;50.154;8.682;2023-02-16T15:17:43;100918.00;;;11.60
65569;BMP180;52211;50.154;8.682;2023-02-16T15:20:32;100915.00;;;11.60
65569;BMP180;52211;50.154;8.682;2023-02-16T15:23:14;100921.00;;;11.60
65569;BMP180;52211;50.154;8.682;2023-02-16T15:26:03;100923.00;;;11.60
65569;BMP180;52211;50.154;8.682;2023-02-16T15:28:34;100910.00;;;11.60
65569;BMP180;52211;50.154;8.682;2023-02-16T15:31:04;100909.00;;;11.60
65569;BMP180;52211;50.154;8.682;2023-02-16T15:33:54;100918.00;;;11.60
65569;BMP180;52211;50.154;8.682;2023-02-16T15:36:38;100925.00;;;11.60
65569;BMP180;52211;50.154;8.682;2023-02-16T15:39:15;100925.00;;;11.60
65569;BMP180;52211;50.154;8.682;2023-02-16T15:41:50;100926.00;;;11.60
65569;BMP180;52211;50.154;8.682;2023-02-16T15:44:35;100935.00;;;11.70
65569;BMP180;52211;50.154;8.682;2023-02-16T15:47:20;100924.00;;;11.70
65569;BMP180;52211;50.154;8.682;2023-02-16T15:49:50;100920.00;;;11.70
65569;BMP180;52211;50.154;8.682;2023-02-16T15:52:27;100911.00;;;11.70
65569;BMP180;52211;50.154;8.682;2023-02-16T15:55:01;100909.00;;;11.70
65569;BMP180;52211;50.154;8.682;2023-02-16T15:57:34;100905.00;;;11.70
65569;BMP180;52211;50.154;8.682;2023-02-16T16:00:17;100907.00;;;11.70
65569;BMP180;52211;50.154;8.682;2023-02-16T16:02:50;100903.00;;;11.70
65569;BMP180;52211;50.154;8.682;2023-02-16T16:05:30;100886.00;;;11.70
65569;BMP180;52211;50.154;8.682;2023-02-16T16:08:05;100885.00;;;11.70
65569;BMP180;52211;50.154;8.682;2023-02-16T16:10:38;100873.00;;;11.60
65569;BMP180;52211;50.154;8.682;2023-02-16T16:13:20;100873.00;;;11.60
65569;BMP180;52211;50.154;8.682;2023-02-16T16:15:56;100880.00;;;11.60
65569;BMP180;52211;50.154;8.682;2023-02-16T16:18:43;100876.00;;;11.60
65569;BMP180;52211;50.154;8.682;2023-02-16T16:21:23;100868.00;;;11.60
65569;BMP180;52211;50.154;8.682;2023-02-16T16:26:33;100859.00;;;11.60
65569;BMP180;52211;50.154;8.682;2023-02-16T16:29:02;100853.00;;;11.60
65569;BMP180;52211;50.154;8.682;2023-02-16T16:31:32;100858.00;;;11.60
65569;BMP180;52211;50.154;8.682;2023-02-16T16:34:05;100852.00;;;11.60
65569;BMP180;52211;50.154;8.682;2023-02-16T16:36:54;100831.00;;;11.60
65569;BMP180;52211;50.154;8.682;2023-02-16T16:39:30;100827.00;;;11.60
65569;BMP180;52211;50.154;8.682;2023-02-16T16:45:03;100852.00;;;11.60
65569;BMP180;52211;50.154;8.682;2023-02-16T16:47:38;100851.00;;;11.60
65569;BMP180;52211;50.154;8.682;2023-02-16T16:55:24;100867.00;;;11.60
65569;BMP180;52211;50.154;8.682;2023-02-16T16:58:04;100870.00;;;11.60
65569;BMP180;52211;50.154;8.682;2023-02-16T17:00:37;100872.00;;;11.70
65569;BMP180;52211;50.154;8.682;2023-02-16T17:03:16;100868.00;;;11.70
65569;BMP180;52211;50.154;8.682;2023-02-16T17:05:46;100877.00;;;11.70
65569;BMP180;52211;50.154;8.682;2023-02-16T17:08:15;100865.00;;;11.70
65569;BMP180;52211;50.154;8.682;2023-02-16T17:10:44;100863.00;;;11.70
65569;BMP180;52211;50.154;8.682;2023-02-16T17:13:18;100859.00;;;11.70
65569;BMP180;52211;50.154;8.682;2023-02-16T17:16:11;100856.00;;;11.70
65569;BMP180;52211;50.154;8.682;2023-02-16T17:18:41;100866.00;;;11.70
65569;BMP180;52211;50.154;8.682;2023-02-16T17:21:12;100864.00;;;11.70
65569;BMP180;52211;50.154;8.682;2023-02-16T17:23:44;100865.00;;;11.70
65569;BMP180;52211;50.154;8.682;2023-02-16T17:26:23;100868.00;;;11.70